Terminal Aerodrome Forecast
Issued by NWS

Home | Current Version | Previous Version | Text Only | Print | Product List | Glossary On
Versions: 1 2 3 4 5 6 7 8 9 10 11 12 13 14 15
000
FTUS44 KMAF 040500
TAFPEQ
TAF
KPEQ 040525Z 0406/0506 13011KT P6SM BKN110
      TEMPO 0406/0407 VRB15G25KT -TSRA BKN040CB
     FM041900 12018G25KT P6SM BKN040=

USA.gov is the U.S. government's official web portal to all federal, state and local government web resources and services.